Time;durP1;ratioP1;P1;durP2;ratioP2;P2;SDS_P1;SDS_P2;PMS_P1;PMS_P2;Temp;Humidity;BMP_temperature;BMP_pressure;BME280_temperature;BME280_humidity;BME280_pressure;Samples;Min_cycle;Max_cycle;Signal;HPM_P1;HPM_P2
2021/06/18 00:00:21;;;;;;;0.42;0.42;;;;;;;19.12;78.75;100929.06;1722739;82;21057;-44
2021/06/18 00:02:51;;;;;;;0.40;0.40;;;;;;;19.08;78.20;100927.26;1726884;82;21014;-44
2021/06/18 00:05:18;;;;;;;0.50;0.50;;;;;;;19.06;78.70;100931.73;1730911;82;21085;-45
2021/06/18 00:07:46;;;;;;;0.50;0.50;;;;;;;18.98;78.72;100928.39;1727789;82;21420;-44
2021/06/18 00:10:14;;;;;;;0.65;0.40;;;;;;;18.96;78.97;100943.70;1726341;82;21109;-43
2021/06/18 00:12:42;;;;;;;1.00;0.45;;;;;;;18.91;78.73;100939.94;1759831;80;21034;-46
2021/06/18 00:15:10;;;;;;;0.70;0.70;;;;;;;18.89;79.18;100947.78;1728859;82;21054;-44
2021/06/18 00:17:36;;;;;;;0.60;0.40;;;;;;;18.88;78.98;100950.28;1726738;82;21068;-44
2021/06/18 00:20:06;;;;;;;0.50;0.50;;;;;;;18.87;79.25;100945.09;1724797;82;21002;-43
2021/06/18 00:22:32;;;;;;;0.68;0.60;;;;;;;18.86;79.57;100944.83;1728211;81;21535;-44
2021/06/18 00:25:00;;;;;;;0.55;0.30;;;;;;;18.83;79.42;100946.29;1730464;82;21337;-44
2021/06/18 00:27:26;;;;;;;0.70;0.60;;;;;;;18.81;80.10;100951.33;1734357;81;21014;-43
2021/06/18 00:29:53;;;;;;;3.85;1.55;;;;;;;18.78;80.63;100954.75;1744342;81;21017;-45
2021/06/18 00:32:19;;;;;;;0.50;0.50;;;;;;;18.74;80.38;100950.95;1714815;81;21062;-44
2021/06/18 00:34:46;;;;;;;0.60;0.60;;;;;;;18.73;79.95;100942.41;1738817;82;21021;-44
2021/06/18 00:37:12;;;;;;;0.82;0.57;;;;;;;18.76;79.74;100940.98;1738404;82;21058;-46
2021/06/18 00:39:40;;;;;;;0.68;0.68;;;;;;;18.78;79.89;100933.98;1743128;80;21009;-44
2021/06/18 00:42:07;;;;;;;0.50;0.50;;;;;;;18.77;79.51;100934.30;1750219;80;21379;-43
2021/06/18 00:44:33;;;;;;;0.95;0.60;;;;;;;18.81;78.20;100934.72;1758860;80;21333;-44
2021/06/18 00:47:00;;;;;;;1.22;0.70;;;;;;;18.85;77.88;100928.79;1746211;81;21372;-44
2021/06/18 00:49:26;;;;;;;4.78;0.90;;;;;;;18.85;78.29;100929.37;1754917;81;21009;-45
2021/06/18 00:51:53;;;;;;;0.40;0.40;;;;;;;18.85;77.66;100927.41;1770696;80;21405;-44
2021/06/18 00:54:29;;;;;;;0.95;0.60;;;;;;;18.90;77.97;100927.25;1735957;80;21010;-45
2021/06/18 00:57:00;;;;;;;0.47;0.47;;;;;;;18.93;77.91;100923.59;1727836;82;21063;-44
2021/06/18 00:59:26;;;;;;;1.37;0.78;;;;;;;18.91;77.68;100926.09;1727524;82;21003;-44
2021/06/18 01:01:53;;;;;;;1.40;0.60;;;;;;;18.95;77.91;100918.55;1758701;81;21082;-43
2021/06/18 01:04:24;;;;;;;0.53;0.40;;;;;;;18.94;77.41;100912.20;1745760;80;21131;-43
2021/06/18 01:07:07;;;;;;;0.40;0.40;;;;;;;18.94;77.42;100912.20;1698750;83;21005;-43
2021/06/18 01:10:01;;;;;;;0.50;0.50;;;;;;;18.97;77.23;100906.58;1756665;81;20997;-43
2021/06/18 01:12:27;;;;;;;1.47;0.30;;;;;;;18.95;77.44;100909.66;1755112;81;21024;-44
2021/06/18 01:15:20;;;;;;;0.60;0.60;;;;;;;18.94;77.65;100915.52;1717121;82;21050;-44
2021/06/18 01:17:55;;;;;;;0.82;0.65;;;;;;;18.91;77.83;100910.86;1738985;81;20986;-45
2021/06/18 01:20:50;;;;;;;0.33;0.33;;;;;;;18.88;77.15;100909.33;1690813;83;21035;-46
2021/06/18 01:23:40;;;;;;;0.82;0.40;;;;;;;18.86;77.86;100914.38;1724424;83;20977;-43
2021/06/18 01:26:32;;;;;;;0.75;0.45;;;;;;;18.77;78.24;100916.30;1724718;83;21044;-44
2021/06/18 01:29:00;;;;;;;;;;;;;;;18.69;78.65;100916.51;1771595;80;21018;-46
2021/06/18 01:31:32;;;;;;;1.22;0.72;;;;;;;18.62;78.04;100906.48;1776014;80;20188;-44
2021/06/18 01:34:04;;;;;;;7.55;0.78;;;;;;;18.56;78.56;100907.78;1742039;81;21497;-44
2021/06/18 01:36:31;;;;;;;1.17;0.70;;;;;;;18.48;78.58;100910.20;1738383;81;21812;-44
2021/06/18 01:38:58;;;;;;;0.60;0.40;;;;;;;18.44;78.63;100906.44;1713027;83;20981;-44
2021/06/18 01:41:27;;;;;;;0.80;0.78;;;;;;;18.40;78.85;100894.98;1727399;81;21021;-44
2021/06/18 01:43:53;;;;;;;1.37;1.07;;;;;;;18.36;79.04;100900.32;1760053;81;21596;-43
2021/06/18 01:46:23;;;;;;;0.45;0.45;;;;;;;18.31;79.27;100901.86;1727847;81;21358;-44
2021/06/18 01:49:00;;;;;;;1.42;0.80;;;;;;;18.28;79.00;100901.12;1760398;81;20978;-44
2021/06/18 01:51:27;;;;;;;1.00;0.78;;;;;;;18.26;79.10;100903.38;1759809;80;21348;-43
2021/06/18 01:53:54;;;;;;;0.57;0.50;;;;;;;18.25;79.03;100903.95;1728800;81;21001;-44
2021/06/18 01:56:20;;;;;;;1.27;0.60;;;;;;;18.25;79.58;100905.34;1759589;80;21008;-43
2021/06/18 01:58:49;;;;;;;3.65;0.98;;;;;;;18.25;79.47;100910.06;1759662;81;21039;-43
2021/06/18 02:01:15;;;;;;;0.55;0.55;;;;;;;18.26;79.83;100915.26;1728255;81;21016;-43
2021/06/18 02:03:43;;;;;;;0.62;0.62;;;;;;;18.27;79.31;100910.53;1728010;80;21045;-44
2021/06/18 02:06:10;;;;;;;0.37;0.37;;;;;;;18.31;79.42;100923.17;1759779;81;21036;-44
2021/06/18 02:08:37;;;;;;;0.45;0.37;;;;;;;18.33;79.28;100920.91;1759692;81;21486;-43
2021/06/18 02:11:04;;;;;;;2.00;0.78;;;;;;;18.36;79.28;100920.27;1727942;81;21028;-43
2021/06/18 02:13:31;;;;;;;2.00;0.50;;;;;;;18.40;79.05;100926.22;1759429;80;21411;-43
2021/06/18 02:15:59;;;;;;;2.22;1.02;;;;;;;18.43;79.20;100917.27;1759716;81;21005;-44
2021/06/18 02:18:26;;;;;;;0.95;0.68;;;;;;;18.50;78.54;100928.45;1759700;81;21447;-43
2021/06/18 02:20:55;;;;;;;0.53;0.47;;;;;;;18.55;77.89;100925.53;1759742;81;21337;-44
2021/06/18 02:23:28;;;;;;;0.62;0.40;;;;;;;18.62;78.66;100934.16;1759764;79;21028;-45
2021/06/18 02:25:58;;;;;;;0.82;0.50;;;;;;;18.63;78.00;100939.95;1729290;81;21056;-44
2021/06/18 02:28:24;;;;;;;0.93;0.68;;;;;;;18.68;77.33;100937.03;1728548;81;21748;-43
2021/06/18 02:30:50;;;;;;;1.52;0.50;;;;;;;18.73;77.43;100927.19;1759917;81;21049;-45
2021/06/18 02:33:17;;;;;;;0.37;0.37;;;;;;;18.77;77.40;100933.75;1754448;81;21402;-43
2021/06/18 02:35:44;;;;;;;0.62;0.47;;;;;;;18.79;76.97;100923.17;1749880;82;21512;-45
2021/06/18 02:38:11;;;;;;;0.90;0.62;;;;;;;18.83;76.56;100931.06;1749851;82;20988;-45
2021/06/18 02:40:38;;;;;;;0.45;0.45;;;;;;;18.85;76.47;100931.56;1756717;80;21006;-45
2021/06/18 02:43:04;;;;;;;2.25;1.32;;;;;;;18.83;76.10;100934.41;1781259;80;20969;-44
2021/06/18 02:45:31;;;;;;;0.50;0.40;;;;;;;18.82;76.33;100946.05;1781222;80;21024;-44
2021/06/18 02:48:08;;;;;;;0.60;0.40;;;;;;;18.79;76.58;100938.95;1781159;80;20989;-44
2021/06/18 02:50:43;;;;;;;2.75;0.88;;;;;;;18.76;76.81;100952.87;1780824;80;21025;-44
2021/06/18 02:53:25;;;;;;;0.40;0.35;;;;;;;18.73;77.22;100954.06;1779879;80;20970;-44
2021/06/18 02:56:22;;;;;;;0.53;0.53;;;;;;;18.71;78.06;100952.98;1781485;80;21002;-46
2021/06/18 02:59:17;;;;;;;0.62;0.30;;;;;;;18.71;78.45;100959.91;1744938;81;21829;-43
2021/06/18 03:01:44;;;;;;;1.50;0.53;;;;;;;18.67;79.02;100948.68;1675996;85;21091;-44
2021/06/18 03:04:13;;;;;;;0.70;0.60;;;;;;;18.62;79.70;100959.06;1676419;84;21102;-44
2021/06/18 03:06:40;;;;;;;0.95;0.88;;;;;;;18.58;79.10;100949.80;1707278;81;21341;-43
2021/06/18 03:09:06;;;;;;;1.07;0.47;;;;;;;18.56;78.56;100954.25;1750009;80;21561;-44
2021/06/18 03:11:38;;;;;;;0.35;0.30;;;;;;;18.56;78.55;100946.52;1749404;82;21004;-44
2021/06/18 03:14:09;;;;;;;3.67;0.90;;;;;;;18.58;78.99;100949.80;1726851;82;21006;-44
2021/06/18 03:16:35;;;;;;;1.40;0.95;;;;;;;18.59;78.44;100948.64;1749760;80;21592;-43
2021/06/18 03:19:05;;;;;;;0.80;0.80;;;;;;;18.63;78.06;100948.26;1759031;80;20975;-45
2021/06/18 03:21:34;;;;;;;0.70;0.70;;;;;;;18.64;78.55;100945.18;1722710;82;20990;-43
2021/06/18 03:24:00;;;;;;;0.62;0.50;;;;;;;18.66;78.50;100948.41;1744214;82;21037;-43
2021/06/18 03:26:27;;;;;;;0.68;0.68;;;;;;;18.69;78.57;100944.19;1693984;82;21020;-44
2021/06/18 03:28:55;;;;;;;0.50;0.50;;;;;;;18.70;78.75;100949.41;1695954;83;21010;-44
2021/06/18 03:31:22;;;;;;;0.45;0.45;;;;;;;18.72;78.87;100953.25;1718177;82;21004;-44
2021/06/18 03:33:49;;;;;;;0.35;0.35;;;;;;;18.70;79.00;100954.95;1695831;83;20993;-43
2021/06/18 03:36:20;;;;;;;1.00;0.90;;;;;;;18.71;79.50;100946.06;1724327;81;21579;-43
2021/06/18 03:38:44;;;;;;;3.47;0.80;;;;;;;18.76;79.51;100950.67;1696518;83;21034;-44
2021/06/18 03:41:10;;;;;;;0.70;0.60;;;;;;;18.84;79.69;100951.25;1696676;83;21402;-45
2021/06/18 03:43:36;;;;;;;0.65;0.30;;;;;;;18.92;79.30;100949.09;1696901;83;21049;-44
2021/06/18 03:46:04;;;;;;;0.95;0.60;;;;;;;19.05;79.48;100954.23;1720047;81;21033;-43
2021/06/18 03:48:31;;;;;;;1.95;0.60;;;;;;;19.17;78.24;100953.02;1781826;80;21380;-43
2021/06/18 03:50:59;;;;;;;0.60;0.50;;;;;;;19.33;78.33;100950.56;1755136;81;21001;-44
2021/06/18 03:53:25;;;;;;;5.10;0.82;;;;;;;19.41;78.33;100957.23;1753595;81;21466;-46
2021/06/18 03:55:52;;;;;;;3.12;0.65;;;;;;;19.41;77.29;100953.08;1720864;81;21042;-44
2021/06/18 03:58:20;;;;;;;0.60;0.60;;;;;;;19.39;77.99;100951.23;1715560;83;21052;-44
2021/06/18 04:00:48;;;;;;;4.15;0.90;;;;;;;19.36;78.08;100951.28;1694759;83;21034;-43
2021/06/18 04:03:15;;;;;;;0.50;0.50;;;;;;;19.30;77.70;100943.72;1726072;82;20994;-45
2021/06/18 04:05:43;;;;;;;0.80;0.53;;;;;;;19.29;77.42;100942.67;1750423;81;20994;-44
2021/06/18 04:08:10;;;;;;;0.70;0.65;;;;;;;19.27;77.75;100948.53;1712542;83;21410;-44
2021/06/18 04:10:39;;;;;;;0.55;0.50;;;;;;;19.26;77.44;100939.98;1713469;83;21022;-46
2021/06/18 04:13:06;;;;;;;1.02;0.53;;;;;;;19.27;78.14;100936.06;1728096;82;21109;-44
2021/06/18 04:15:34;;;;;;;0.75;0.75;;;;;;;19.32;78.03;100950.33;1719909;82;21544;-45
2021/06/18 04:18:01;;;;;;;0.88;0.57;;;;;;;19.38;77.95;100950.39;1660862;85;20971;-44
2021/06/18 04:20:27;;;;;;;6.15;1.10;;;;;;;19.44;77.32;100951.06;1717635;82;20995;-45
2021/06/18 04:22:54;;;;;;;0.53;0.53;;;;;;;19.53;77.58;100958.78;1745679;81;21021;-44
2021/06/18 04:25:21;;;;;;;0.85;0.70;;;;;;;19.53;77.58;100958.78;1744163;81;21490;-44
2021/06/18 04:27:48;;;;;;;2.72;0.62;;;;;;;19.57;77.44;100956.98;1743121;81;21527;-44
2021/06/18 04:30:15;;;;;;;0.55;0.55;;;;;;;19.61;77.97;100962.13;1743659;82;20990;-44
2021/06/18 04:32:42;;;;;;;0.47;0.47;;;;;;;19.70;78.02;100962.13;1747004;81;21049;-44
2021/06/18 04:35:09;;;;;;;0.57;0.55;;;;;;;19.87;77.29;100926.62;1723145;81;21036;-47
2021/06/18 04:37:35;;;;;;;0.95;0.70;;;;;;;20.05;76.25;100955.92;1741707;82;21009;-45
2021/06/18 04:40:04;;;;;;;0.65;0.60;;;;;;;20.21;74.57;100955.41;1712543;83;21002;-44
2021/06/18 04:42:31;;;;;;;0.50;0.50;;;;;;;20.36;74.49;100965.37;1708132;83;21460;-43
2021/06/18 04:44:58;;;;;;;0.60;0.60;;;;;;;20.46;73.88;100968.34;1707620;83;21010;-43
2021/06/18 04:47:25;;;;;;;1.02;0.93;;;;;;;20.54;74.17;100972.23;1707800;83;21393;-44
2021/06/18 04:49:51;;;;;;;0.88;0.72;;;;;;;20.61;75.12;100977.52;1712424;83;20990;-44
2021/06/18 04:52:19;;;;;;;0.53;0.53;;;;;;;20.70;74.17;100981.66;1712500;83;21870;-44
2021/06/18 04:54:45;;;;;;;1.65;1.20;;;;;;;20.81;74.71;100979.30;1712391;82;21013;-45
2021/06/18 04:57:13;;;;;;;2.08;0.93;;;;;;;20.93;74.71;100978.00;1713825;83;20994;-44
2021/06/18 04:59:39;;;;;;;0.62;0.50;;;;;;;21.01;73.54;100984.06;1689038;84;21165;-44
2021/06/18 05:02:06;;;;;;;1.60;1.27;;;;;;;21.10;74.31;100984.59;1721873;82;21062;-44
2021/06/18 05:04:33;;;;;;;1.47;0.85;;;;;;;21.18;74.49;100980.94;1684786;83;21073;-43
2021/06/18 05:06:59;;;;;;;0.93;0.60;;;;;;;21.29;73.12;100990.51;1710019;83;21045;-45
2021/06/18 05:09:25;;;;;;;1.00;0.90;;;;;;;21.37;72.94;100991.00;1709566;83;21013;-44
2021/06/18 05:11:52;;;;;;;0.88;0.72;;;;;;;21.44;72.37;100994.09;1712134;83;21034;-45
2021/06/18 05:14:19;;;;;;;0.62;0.62;;;;;;;21.50;72.64;100996.66;1733644;82;21014;-45
2021/06/18 05:16:46;;;;;;;0.50;0.50;;;;;;;21.59;72.60;100997.41;1703327;83;21345;-44
2021/06/18 05:19:12;;;;;;;1.85;0.70;;;;;;;21.70;72.46;100988.86;1707184;82;21010;-45
2021/06/18 05:21:38;;;;;;;0.85;0.70;;;;;;;21.82;72.08;100987.52;1684917;84;21039;-44
2021/06/18 05:24:06;;;;;;;1.07;0.98;;;;;;;21.92;71.52;100992.42;1695918;83;21014;-44
2021/06/18 05:26:34;;;;;;;1.02;0.72;;;;;;;21.83;69.24;100986.34;1658849;85;21511;-44
2021/06/18 05:29:00;;;;;;;1.85;0.88;;;;;;;21.71;70.74;100991.89;1695605;84;21491;-46
2021/06/18 05:31:27;;;;;;;1.72;0.82;;;;;;;21.68;71.60;100986.99;1707318;84;21564;-44
2021/06/18 05:33:54;;;;;;;0.93;0.80;;;;;;;21.76;72.28;100990.29;1695148;82;20992;-45
2021/06/18 05:36:22;;;;;;;0.37;0.37;;;;;;;21.91;72.26;100986.05;1704786;82;20975;-44
2021/06/18 05:38:48;;;;;;;0.70;0.70;;;;;;;22.06;72.63;100986.78;1711626;83;21100;-44
2021/06/18 05:41:15;;;;;;;0.75;0.60;;;;;;;22.20;71.13;100982.30;1714114;82;21479;-44
2021/06/18 05:43:41;;;;;;;1.57;1.00;;;;;;;22.30;70.96;100983.27;1710615;83;21005;-44
2021/06/18 05:46:08;;;;;;;1.00;0.90;;;;;;;22.35;70.74;100991.94;1714580;82;21063;-44
2021/06/18 05:48:35;;;;;;;0.55;0.50;;;;;;;22.40;70.17;100988.12;1692926;83;21014;-44
2021/06/18 05:51:02;;;;;;;1.02;0.90;;;;;;;22.47;71.32;100993.94;1726790;83;21007;-45
2021/06/18 05:53:28;;;;;;;1.85;0.80;;;;;;;22.56;70.41;100997.43;1703288;82;21079;-44
2021/06/18 05:55:57;;;;;;;0.50;0.50;;;;;;;22.62;69.84;100998.81;1710658;83;21016;-44
2021/06/18 05:58:25;;;;;;;0.50;0.50;;;;;;;22.69;70.06;100998.23;1682652;83;39476;-44
2021/06/18 06:00:52;;;;;;;0.98;0.70;;;;;;;22.79;70.08;100988.60;1714337;82;21518;-45
2021/06/18 06:03:18;;;;;;;1.67;0.93;;;;;;;22.83;69.44;100998.70;1714766;83;21033;-45
2021/06/18 06:05:44;;;;;;;0.80;0.80;;;;;;;22.85;69.51;100996.94;1711831;82;21010;-43
2021/06/18 06:08:12;;;;;;;0.70;0.70;;;;;;;22.93;70.65;101001.59;1687756;83;21110;-44
2021/06/18 06:10:40;;;;;;;0.57;0.57;;;;;;;23.08;69.23;101005.09;1722669;82;21445;-45
2021/06/18 06:13:06;;;;;;;0.60;0.47;;;;;;;23.24;70.02;101008.53;1711581;83;21015;-44
2021/06/18 06:15:35;;;;;;;1.20;0.70;;;;;;;23.39;68.52;101003.61;1738509;82;21479;-44
2021/06/18 06:18:01;;;;;;;1.27;0.82;;;;;;;23.52;67.12;101002.42;1737809;82;21022;-45
2021/06/18 06:20:27;;;;;;;0.55;0.55;;;;;;;23.58;67.74;101014.13;1704159;82;21066;-46
2021/06/18 06:22:53;;;;;;;1.02;0.93;;;;;;;23.55;67.33;101010.08;1737673;82;20993;-45
2021/06/18 06:25:20;;;;;;;0.98;0.93;;;;;;;23.51;68.50;101002.17;1741036;82;21089;-44
2021/06/18 06:27:46;;;;;;;0.70;0.70;;;;;;;23.55;67.09;101014.84;1708333;83;21570;-43
2021/06/18 06:30:14;;;;;;;0.70;0.68;;;;;;;23.59;67.62;101019.95;1712608;83;21018;-43
2021/06/18 06:32:40;;;;;;;1.72;0.85;;;;;;;23.66;67.80;101012.36;1736189;82;21021;-44
2021/06/18 06:35:08;;;;;;;1.70;0.90;;;;;;;23.69;67.41;101009.69;1736547;82;21090;-46
2021/06/18 06:37:36;;;;;;;0.72;0.62;;;;;;;23.64;67.40;101004.92;1749573;82;20977;-45
2021/06/18 06:40:05;;;;;;;0.50;0.50;;;;;;;23.54;67.54;101012.64;1738084;82;21626;-44
2021/06/18 06:42:32;;;;;;;0.90;0.80;;;;;;;23.43;67.56;101014.30;1737061;82;21057;-44
2021/06/18 06:44:58;;;;;;;2.90;1.20;;;;;;;23.44;68.36;101015.10;1744597;80;21061;-46
2021/06/18 06:47:27;;;;;;;3.37;0.60;;;;;;;23.50;68.03;101015.91;1745709;80;21383;-44
2021/06/18 06:49:53;;;;;;;0.98;0.90;;;;;;;23.69;68.90;101022.23;1749251;82;21064;-44
2021/06/18 06:52:20;;;;;;;1.02;0.60;;;;;;;23.87;67.23;101021.38;1749469;82;21039;-46
2021/06/18 06:54:47;;;;;;;1.00;0.90;;;;;;;23.94;67.87;101024.36;1749129;82;20914;-45
2021/06/18 06:57:16;;;;;;;2.25;1.40;;;;;;;23.98;66.76;101021.06;1748819;81;21000;-45
2021/06/18 06:59:41;;;;;;;1.10;1.00;;;;;;;24.05;68.53;101020.45;1739529;81;21097;-44
2021/06/18 07:02:08;;;;;;;0.60;0.60;;;;;;;24.21;67.99;101026.09;1739375;81;21066;-44
2021/06/18 07:04:35;;;;;;;1.12;0.78;;;;;;;24.31;66.83;101031.70;1738924;82;21022;-44
2021/06/18 07:07:02;;;;;;;1.00;0.90;;;;;;;24.28;66.03;101024.84;1727124;81;21037;-45
2021/06/18 07:09:29;;;;;;;1.10;0.90;;;;;;;24.20;67.00;101030.03;1732864;81;21042;-44
2021/06/18 07:11:55;;;;;;;0.40;0.40;;;;;;;24.09;66.04;101035.34;1738907;81;21501;-44
2021/06/18 07:14:22;;;;;;;1.45;0.88;;;;;;;24.02;66.43;101032.34;1726791;82;21035;-44
2021/06/18 07:16:48;;;;;;;1.12;0.75;;;;;;;23.95;65.83;101037.14;1744427;80;21378;-44
2021/06/18 07:19:14;;;;;;;1.47;0.88;;;;;;;23.84;67.27;101040.23;1711049;82;21019;-44
2021/06/18 07:21:41;;;;;;;1.42;0.75;;;;;;;23.77;67.98;101041.42;1741398;82;21067;-44
2021/06/18 07:24:07;;;;;;;2.15;1.00;;;;;;;23.72;68.20;101049.42;1749678;82;20993;-43
2021/06/18 07:26:34;;;;;;;1.35;0.80;;;;;;;23.68;68.05;101043.50;1749667;82;21535;-45
2021/06/18 07:29:01;;;;;;;0.98;0.88;;;;;;;23.61;68.15;101048.28;1750103;82;20994;-44
2021/06/18 07:31:28;;;;;;;0.70;0.70;;;;;;;23.58;69.33;101041.44;1719256;82;21017;-47
2021/06/18 07:33:55;;;;;;;0.90;0.80;;;;;;;23.61;69.87;101048.28;1726671;82;21057;-45
2021/06/18 07:36:22;;;;;;;1.40;0.95;;;;;;;23.66;69.76;101053.61;1727350;83;21037;-44
2021/06/18 07:38:49;;;;;;;0.78;0.72;;;;;;;23.74;70.78;101050.50;1724893;83;21455;-44
2021/06/18 07:41:16;;;;;;;1.90;0.75;;;;;;;23.86;70.12;101058.80;1717805;83;21038;-44
2021/06/18 07:43:42;;;;;;;4.45;1.27;;;;;;;23.97;69.40;101055.73;1725714;81;21598;-44
2021/06/18 07:46:08;;;;;;;0.53;0.53;;;;;;;24.06;69.20;101062.58;1745495;80;20985;-44
2021/06/18 07:48:36;;;;;;;0.80;0.80;;;;;;;24.16;70.00;101070.98;1746602;81;21418;-44
2021/06/18 07:51:03;;;;;;;0.62;0.62;;;;;;;24.32;69.35;101063.47;1743954;81;20985;-43
2021/06/18 07:53:29;;;;;;;1.07;0.82;;;;;;;24.44;68.80;101059.20;1732335;82;21064;-44
2021/06/18 07:55:56;;;;;;;1.20;0.55;;;;;;;24.54;70.18;101061.27;1719192;82;21021;-44
2021/06/18 07:58:22;;;;;;;0.65;0.50;;;;;;;24.73;70.86;101066.95;1743894;82;20990;-44
2021/06/18 08:00:49;;;;;;;1.87;0.78;;;;;;;24.86;67.98;101055.89;1744066;82;21932;-43
2021/06/18 08:03:15;;;;;;;0.95;0.80;;;;;;;24.86;65.06;101068.47;1732239;81;21107;-47
2021/06/18 08:05:42;;;;;;;1.60;0.82;;;;;;;24.67;65.19;101066.98;1737126;82;21004;-44
2021/06/18 08:08:08;;;;;;;1.57;0.75;;;;;;;24.55;66.61;101064.28;1749400;82;21471;-45
2021/06/18 08:10:35;;;;;;;1.32;1.10;;;;;;;24.51;66.99;101067.59;1749013;80;20979;-45
2021/06/18 08:13:01;;;;;;;0.80;0.80;;;;;;;24.52;68.19;101060.22;1719594;83;21023;-45
2021/06/18 08:15:28;;;;;;;0.80;0.65;;;;;;;24.56;66.95;101054.16;1718128;82;21012;-44
2021/06/18 08:17:56;;;;;;;1.20;0.93;;;;;;;24.53;67.71;101059.07;1717941;83;21486;-45
2021/06/18 08:20:25;;;;;;;0.70;0.70;;;;;;;24.55;68.73;101057.30;1714776;81;21494;-44
2021/06/18 08:22:50;;;;;;;0.80;0.80;;;;;;;24.64;69.36;101050.95;1750936;81;20978;-44
2021/06/18 08:25:17;;;;;;;1.75;0.80;;;;;;;24.83;67.12;101063.61;1757197;80;21411;-45
2021/06/18 08:27:44;;;;;;;1.55;0.88;;;;;;;24.91;65.61;101059.59;1744893;79;21040;-44
2021/06/18 08:30:11;;;;;;;0.60;0.60;;;;;;;24.94;67.08;101062.47;1725392;81;21039;-44
2021/06/18 08:32:37;;;;;;;1.37;0.70;;;;;;;24.98;67.37;101059.77;1749478;81;20996;-45
2021/06/18 08:35:04;;;;;;;0.90;0.90;;;;;;;24.95;66.65;101060.47;1756903;80;20975;-41
2021/06/18 08:37:31;;;;;;;1.15;0.88;;;;;;;24.90;66.82;101062.98;1700291;84;20999;-41
2021/06/18 08:39:58;;;;;;;0.80;0.80;;;;;;;24.81;67.01;101063.16;1714299;80;21015;-41
2021/06/18 08:42:25;;;;;;;0.95;0.70;;;;;;;24.73;67.28;101065.56;1751144;81;20978;-41
2021/06/18 08:44:52;;;;;;;0.88;0.88;;;;;;;24.71;67.57;101056.72;1725279;81;20987;-44
2021/06/18 08:47:18;;;;;;;1.25;0.93;;;;;;;24.68;67.58;101061.64;1791971;80;21553;-44
2021/06/18 08:49:44;;;;;;;0.80;0.80;;;;;;;24.67;68.53;101059.41;1781342;80;21008;-44
2021/06/18 08:52:11;;;;;;;0.70;0.70;;;;;;;24.70;67.84;101059.27;1700408;83;21422;-45
2021/06/18 08:54:42;;;;;;;1.50;1.10;;;;;;;24.76;67.82;101057.84;1731698;81;21051;-44
2021/06/18 08:57:15;;;;;;;0.72;0.72;;;;;;;24.80;68.13;101054.56;1731094;82;21008;-51
2021/06/18 08:59:42;;;;;;;1.47;0.72;;;;;;;24.92;68.67;101055.62;1731351;81;21196;-51
2021/06/18 09:02:09;;;;;;;0.65;0.60;;;;;;;25.07;70.12;101049.19;1731090;82;21039;-51
2021/06/18 09:05:11;;;;;;;1.57;0.90;;;;;;;25.34;69.62;101046.63;1731432;81;21000;-51
2021/06/18 09:07:59;;;;;;;0.85;0.60;;;;;;;25.53;67.05;101041.86;1712197;82;21027;-51
2021/06/18 09:10:40;;;;;;;1.05;0.70;;;;;;;25.71;68.05;101047.83;1726132;81;21021;-51
2021/06/18 09:13:22;;;;;;;1.02;0.72;;;;;;;25.89;66.85;101053.01;1710695;82;21006;-51
2021/06/18 09:15:54;;;;;;;3.37;0.90;;;;;;;25.92;65.84;101048.89;1728712;81;21018;-50
2021/06/18 09:18:31;;;;;;;0.68;0.68;;;;;;;25.92;65.22;101049.49;1718580;82;21023;-51
2021/06/18 09:21:12;;;;;;;1.07;0.72;;;;;;;25.89;65.20;101050.20;1698770;83;21066;-51
2021/06/18 09:23:45;;;;;;;1.72;1.00;;;;;;;25.93;65.92;101043.50;1698443;82;21436;-51
2021/06/18 09:26:35;;;;;;;0.85;0.85;;;;;;;26.02;63.73;101051.69;1730474;81;21011;-51
2021/06/18 09:29:21;;;;;;;0.95;0.62;;;;;;;25.97;64.20;101054.79;1759571;81;20992;-51
2021/06/18 09:32:02;;;;;;;0.82;0.70;;;;;;;25.92;64.62;101052.29;1760822;81;21481;-51
2021/06/18 09:37:19;;;;;;;1.80;0.70;;;;;;;26.09;65.40;101049.03;1715880;83;20990;-50
2021/06/18 09:40:05;;;;;;;0.82;0.80;;;;;;;26.18;64.01;101041.17;1728755;81;21031;-50
2021/06/18 09:42:58;;;;;;;1.42;0.80;;;;;;;26.14;64.62;101036.13;1745822;82;20982;-50
2021/06/18 09:45:36;;;;;;;0.70;0.70;;;;;;;26.15;63.85;101040.53;1735483;80;21012;-51
2021/06/18 09:48:12;;;;;;;0.70;0.70;;;;;;;26.05;63.97;101049.53;1750897;81;21409;-51
2021/06/18 09:50:43;;;;;;;1.25;1.07;;;;;;;26.03;65.65;101035.09;1753170;81;21054;-50
2021/06/18 09:53:14;;;;;;;0.88;0.80;;;;;;;26.22;65.67;101033.45;1719404;81;21018;-51
2021/06/18 09:55:43;;;;;;;1.00;0.62;;;;;;;26.31;64.24;101024.19;1721789;82;21075;-50
2021/06/18 09:58:10;;;;;;;1.65;0.88;;;;;;;26.39;64.07;101028.76;1718862;83;21495;-51
2021/06/18 10:00:37;;;;;;;0.72;0.72;;;;;;;26.43;64.32;101028.21;1733963;82;20988;-51
2021/06/18 10:03:04;;;;;;;1.17;0.60;;;;;;;26.44;64.69;101025.64;1750430;80;21010;-50
2021/06/18 10:05:33;;;;;;;0.70;0.70;;;;;;;26.39;63.28;101024.56;1703846;81;21010;-51
2021/06/18 10:08:00;;;;;;;1.50;0.95;;;;;;;26.38;63.75;101031.33;1719123;83;20980;-51
2021/06/18 10:10:32;;;;;;;1.15;0.88;;;;;;;26.45;63.50;101023.65;1746225;80;20994;-49
2021/06/18 10:13:00;;;;;;;0.82;0.68;;;;;;;26.51;64.50;101025.77;1753240;81;21011;-48
2021/06/18 10:15:30;;;;;;;1.00;0.80;;;;;;;26.58;64.05;101025.92;1725268;81;20997;-49
2021/06/18 10:17:57;;;;;;;0.78;0.78;;;;;;;26.69;63.70;101022.48;1755053;81;21484;-48
2021/06/18 10:20:29;;;;;;;1.15;0.80;;;;;;;26.77;63.91;101014.39;1755138;79;21434;-48
2021/06/18 10:23:10;;;;;;;1.07;0.75;;;;;;;27.08;63.91;101026.46;1754058;80;21394;-51
2021/06/18 10:25:39;;;;;;;;;;;;;;;27.08;63.91;101026.46;1753870;79;21038;-51
2021/06/18 10:28:08;;;;;;;0.78;0.75;;;;;;;27.24;62.60;101032.15;1754351;79;20181;-51
2021/06/18 10:30:47;;;;;;;0.82;0.82;;;;;;;27.26;62.16;101024.77;1750427;80;20996;-52
2021/06/18 10:33:34;;;;;;;0.95;0.85;;;;;;;27.33;64.15;101027.67;1753168;79;21455;-50
2021/06/18 10:36:10;;;;;;;0.95;0.78;;;;;;;27.50;62.81;101032.48;1749925;80;21031;-51
2021/06/18 10:38:41;;;;;;;0.65;0.65;;;;;;;27.58;60.80;101028.59;1744948;82;21459;-51
2021/06/18 10:41:24;;;;;;;0.80;0.80;;;;;;;27.59;60.93;101028.80;1741073;80;21000;-51
2021/06/18 10:43:56;;;;;;;1.50;0.60;;;;;;;27.66;60.31;101034.50;1738023;82;21000;-50
2021/06/18 10:46:29;;;;;;;1.22;0.70;;;;;;;27.75;61.81;101035.62;1744335;80;21520;-51
2021/06/18 10:49:13;;;;;;;1.37;0.80;;;;;;;27.84;59.53;101035.57;1743348;82;21038;-51
2021/06/18 10:51:43;;;;;;;0.95;0.70;;;;;;;27.81;58.14;101030.67;1738088;81;20989;-51
2021/06/18 10:54:25;;;;;;;1.95;0.55;;;;;;;27.74;60.10;101034.80;1732410;82;20997;-51
2021/06/18 10:56:51;;;;;;;1.05;0.70;;;;;;;27.71;59.30;101036.97;1744283;82;20989;-51
2021/06/18 10:59:36;;;;;;;0.60;0.60;;;;;;;27.57;59.90;101028.36;1744629;82;21393;-51
2021/06/18 11:02:22;;;;;;;0.93;0.82;;;;;;;27.50;60.71;101026.87;1742922;82;20981;-51
2021/06/18 11:04:54;;;;;;;0.45;0.40;;;;;;;27.52;61.07;101033.75;1744797;80;21063;-51
2021/06/18 11:07:30;;;;;;;0.90;0.70;;;;;;;27.57;61.08;101029.77;1744710;82;21016;-50
2021/06/18 11:10:17;;;;;;;1.70;0.65;;;;;;;27.56;60.76;101031.77;1745034;82;20992;-51
2021/06/18 11:12:46;;;;;;;2.12;0.82;;;;;;;27.56;59.83;101034.58;1725310;82;21005;-51
2021/06/18 11:15:24;;;;;;;0.60;0.60;;;;;;;27.50;59.26;101038.92;1713481;82;21092;-51
2021/06/18 11:18:02;;;;;;;0.80;0.80;;;;;;;27.37;59.20;101042.54;1716921;82;21065;-51
2021/06/18 11:20:40;;;;;;;4.65;1.02;;;;;;;27.28;60.26;101047.64;1747911;80;21001;-51
2021/06/18 11:23:12;;;;;;;1.15;0.60;;;;;;;27.20;60.84;101037.49;1730206;81;21458;-51
2021/06/18 11:25:44;;;;;;;1.27;1.00;;;;;;;27.14;61.31;101038.98;1707934;82;21559;-51
2021/06/18 11:28:26;;;;;;;1.32;1.00;;;;;;;27.15;60.80;101046.20;1720180;82;21058;-48
2021/06/18 11:31:13;;;;;;;0.75;0.75;;;;;;;27.18;60.61;101044.06;1732345;82;21031;-48
2021/06/18 11:33:46;;;;;;;1.40;1.15;;;;;;;27.15;60.72;101045.63;1734223;82;21419;-48
2021/06/18 11:36:22;;;;;;;1.07;0.70;;;;;;;27.14;61.61;101048.80;1732477;82;20994;-48
2021/06/18 11:39:06;;;;;;;0.90;0.78;;;;;;;27.20;61.86;101047.31;1731542;81;21045;-48
2021/06/18 11:41:39;;;;;;;0.70;0.70;;;;;;;27.21;60.59;101052.55;1732295;82;21054;-49